Red Oak, Georgia
Current Conditions -  °F | °C
As of 7:52 PM on Saturday 25 Oct 2014 (Local Time) from KATL Reporting Station
Clear Clear  
Wind Chill: 67°   Ceiling: Unl
Heat Index: 67°   Visibility: 10mi
Dew Point: 47°   Wind: 5mph
Humidity: 49%   Direction: 280°W
Pressure: 30.02"   Gusts: NA
Location:  33.63°N, 84.5°W
Report Text: KATL 252352Z 28004KT 10SM CLR 19/08 A3002 RMK AO2 SLP164 T01940083 10250 20194 50004
Loading
Personal Weather Stations






























Interactive Weather Map
Tropical Storm Tracking
New forecast layout! Learn more

10-Day Weather Forecast

Advertisements
Track Severe Weather on mobile